sensor_id;sensor_type;location;lat;lon;timestamp;temperature;humidity
10282;DHT22;5186;59.472;18.048;2022-12-07T00:00:17;-5.00;99.90
10282;DHT22;5186;59.472;18.048;2022-12-07T00:02:42;-5.00;99.90
10282;DHT22;5186;59.472;18.048;2022-12-07T00:05:08;-5.00;99.90
10282;DHT22;5186;59.472;18.048;2022-12-07T00:07:33;-5.00;99.90
10282;DHT22;5186;59.472;18.048;2022-12-07T00:09:59;-5.00;99.90
10282;DHT22;5186;59.472;18.048;2022-12-07T00:12:24;-5.00;99.90
10282;DHT22;5186;59.472;18.048;2022-12-07T00:14:50;-5.10;99.90
10282;DHT22;5186;59.472;18.048;2022-12-07T00:17:16;-5.10;99.90
10282;DHT22;5186;59.472;18.048;2022-12-07T00:19:41;-5.10;99.90
10282;DHT22;5186;59.472;18.048;2022-12-07T00:22:07;-5.10;99.90
10282;DHT22;5186;59.472;18.048;2022-12-07T00:24:32;-5.10;99.90
10282;DHT22;5186;59.472;18.048;2022-12-07T00:26:58;-5.10;99.90
10282;DHT22;5186;59.472;18.048;2022-12-07T00:29:23;-5.10;99.90
10282;DHT22;5186;59.472;18.048;2022-12-07T00:31:49;-5.10;99.90
10282;DHT22;5186;59.472;18.048;2022-12-07T00:34:17;-5.10;99.90
10282;DHT22;5186;59.472;18.048;2022-12-07T00:36:43;-5.10;99.90
10282;DHT22;5186;59.472;18.048;2022-12-07T00:39:09;-5.10;99.90
10282;DHT22;5186;59.472;18.048;2022-12-07T00:41:35;-5.10;99.90
10282;DHT22;5186;59.472;18.048;2022-12-07T00:44:01;-5.10;99.90
10282;DHT22;5186;59.472;18.048;2022-12-07T00:46:26;-5.10;99.90
10282;DHT22;5186;59.472;18.048;2022-12-07T00:48:53;-5.20;99.90
10282;DHT22;5186;59.472;18.048;2022-12-07T00:51:21;-5.10;99.90
10282;DHT22;5186;59.472;18.048;2022-12-07T00:53:47;-5.10;99.90
10282;DHT22;5186;59.472;18.048;2022-12-07T00:56:15;-5.20;99.90
10282;DHT22;5186;59.472;18.048;2022-12-07T00:58:41;-5.20;99.90
10282;DHT22;5186;59.472;18.048;2022-12-07T01:01:08;-5.20;99.90
10282;DHT22;5186;59.472;18.048;2022-12-07T01:03:35;-5.20;99.90
10282;DHT22;5186;59.472;18.048;2022-12-07T01:06:00;-5.20;99.90
10282;DHT22;5186;59.472;18.048;2022-12-07T01:08:27;-5.20;99.90
10282;DHT22;5186;59.472;18.048;2022-12-07T01:11:07;-5.30;99.90
10282;DHT22;5186;59.472;18.048;2022-12-07T01:13:34;-5.30;99.90
10282;DHT22;5186;59.472;18.048;2022-12-07T01:16:01;-5.20;99.90
10282;DHT22;5186;59.472;18.048;2022-12-07T01:18:28;-5.30;99.90
10282;DHT22;5186;59.472;18.048;2022-12-07T01:21:02;-5.30;99.90
10282;DHT22;5186;59.472;18.048;2022-12-07T01:23:29;-5.30;99.90
10282;DHT22;5186;59.472;18.048;2022-12-07T01:25:59;-5.30;99.90
10282;DHT22;5186;59.472;18.048;2022-12-07T01:28:26;-5.30;99.90
10282;DHT22;5186;59.472;18.048;2022-12-07T01:30:56;-5.30;99.90
10282;DHT22;5186;59.472;18.048;2022-12-07T01:33:22;-5.30;99.90
10282;DHT22;5186;59.472;18.048;2022-12-07T01:35:48;-5.30;99.90
10282;DHT22;5186;59.472;18.048;2022-12-07T01:38:13;-5.30;99.90
10282;DHT22;5186;59.472;18.048;2022-12-07T01:40:39;-5.30;99.90
10282;DHT22;5186;59.472;18.048;2022-12-07T01:43:14;-5.30;99.90
10282;DHT22;5186;59.472;18.048;2022-12-07T01:45:42;-5.30;99.90
10282;DHT22;5186;59.472;18.048;2022-12-07T01:48:10;-5.30;99.90
10282;DHT22;5186;59.472;18.048;2022-12-07T01:50:37;-5.30;99.90
10282;DHT22;5186;59.472;18.048;2022-12-07T01:53:05;-5.40;99.90
10282;DHT22;5186;59.472;18.048;2022-12-07T01:55:32;-5.30;99.90
10282;DHT22;5186;59.472;18.048;2022-12-07T01:57:59;-5.40;99.90
10282;DHT22;5186;59.472;18.048;2022-12-07T02:00:25;-5.40;99.90
10282;DHT22;5186;59.472;18.048;2022-12-07T02:03:00;-5.40;99.90
10282;DHT22;5186;59.472;18.048;2022-12-07T02:05:30;-5.40;99.90
10282;DHT22;5186;59.472;18.048;2022-12-07T02:07:56;-5.40;99.90
10282;DHT22;5186;59.472;18.048;2022-12-07T02:10:25;-5.40;99.90
10282;DHT22;5186;59.472;18.048;2022-12-07T02:23:40;-5.40;99.90
10282;DHT22;5186;59.472;18.048;2022-12-07T02:26:27;-5.40;99.90
10282;DHT22;5186;59.472;18.048;2022-12-07T02:31:27;-5.40;99.90
10282;DHT22;5186;59.472;18.048;2022-12-07T02:34:07;-5.40;99.90
10282;DHT22;5186;59.472;18.048;2022-12-07T02:36:39;-5.40;99.90
10282;DHT22;5186;59.472;18.048;2022-12-07T02:39:14;-5.40;99.90
10282;DHT22;5186;59.472;18.048;2022-12-07T02:41:46;-5.40;99.90
10282;DHT22;5186;59.472;18.048;2022-12-07T02:44:16;-5.40;99.90
10282;DHT22;5186;59.472;18.048;2022-12-07T02:46:46;-5.40;99.90
10282;DHT22;5186;59.472;18.048;2022-12-07T02:49:15;-5.40;99.90
10282;DHT22;5186;59.472;18.048;2022-12-07T02:51:43;-5.40;99.90
10282;DHT22;5186;59.472;18.048;2022-12-07T02:54:13;-5.40;99.90
10282;DHT22;5186;59.472;18.048;2022-12-07T02:56:56;-5.40;99.90
10282;DHT22;5186;59.472;18.048;2022-12-07T03:03:26;-5.40;99.90
10282;DHT22;5186;59.472;18.048;2022-12-07T03:05:31;-5.40;99.90
10282;DHT22;5186;59.472;18.048;2022-12-07T03:11:02;-5.40;99.90
10282;DHT22;5186;59.472;18.048;2022-12-07T03:16:12;-5.40;99.90
10282;DHT22;5186;59.472;18.048;2022-12-07T03:18:49;-5.40;99.90
10282;DHT22;5186;59.472;18.048;2022-12-07T03:21:20;-5.40;99.90
10282;DHT22;5186;59.472;18.048;2022-12-07T03:23:51;-5.40;99.90
10282;DHT22;5186;59.472;18.048;2022-12-07T03:26:19;-5.40;99.90
10282;DHT22;5186;59.472;18.048;2022-12-07T03:28:52;-5.40;99.90
10282;DHT22;5186;59.472;18.048;2022-12-07T03:31:24;-5.40;99.90
10282;DHT22;5186;59.472;18.048;2022-12-07T03:34:11;-5.40;99.90
10282;DHT22;5186;59.472;18.048;2022-12-07T03:36:50;-5.40;99.90
10282;DHT22;5186;59.472;18.048;2022-12-07T03:39:23;-5.40;99.90
10282;DHT22;5186;59.472;18.048;2022-12-07T03:41:50;-5.40;99.90
10282;DHT22;5186;59.472;18.048;2022-12-07T03:44:16;-5.40;99.90
10282;DHT22;5186;59.472;18.048;2022-12-07T03:47:05;-5.40;99.90
10282;DHT22;5186;59.472;18.048;2022-12-07T03:49:52;-5.40;99.90
10282;DHT22;5186;59.472;18.048;2022-12-07T03:52:30;-5.30;99.90
10282;DHT22;5186;59.472;18.048;2022-12-07T03:55:11;-5.30;99.90
10282;DHT22;5186;59.472;18.048;2022-12-07T03:57:40;-5.40;99.90
10282;DHT22;5186;59.472;18.048;2022-12-07T04:00:09;-5.30;99.90
10282;DHT22;5186;59.472;18.048;2022-12-07T04:02:35;-5.30;99.90
10282;DHT22;5186;59.472;18.048;2022-12-07T04:05:02;-5.30;99.90
10282;DHT22;5186;59.472;18.048;2022-12-07T04:07:27;-5.30;99.90
10282;DHT22;5186;59.472;18.048;2022-12-07T04:09:53;-5.30;99.90
10282;DHT22;5186;59.472;18.048;2022-12-07T04:12:20;-5.30;99.90
10282;DHT22;5186;59.472;18.048;2022-12-07T04:14:46;-5.30;99.90
10282;DHT22;5186;59.472;18.048;2022-12-07T04:17:11;-5.30;99.90
10282;DHT22;5186;59.472;18.048;2022-12-07T04:19:37;-5.20;99.90
10282;DHT22;5186;59.472;18.048;2022-12-07T04:22:06;-5.20;99.90
10282;DHT22;5186;59.472;18.048;2022-12-07T04:24:32;-5.20;99.90
10282;DHT22;5186;59.472;18.048;2022-12-07T04:26:58;-5.20;99.90
10282;DHT22;5186;59.472;18.048;2022-12-07T04:29:24;-5.20;99.90
10282;DHT22;5186;59.472;18.048;2022-12-07T04:31:51;-5.20;99.90
10282;DHT22;5186;59.472;18.048;2022-12-07T04:34:17;-5.20;99.90
10282;DHT22;5186;59.472;18.048;2022-12-07T04:36:44;-5.20;99.90
10282;DHT22;5186;59.472;18.048;2022-12-07T04:39:21;-5.20;99.90
10282;DHT22;5186;59.472;18.048;2022-12-07T04:41:48;-5.20;99.90
10282;DHT22;5186;59.472;18.048;2022-12-07T04:44:15;-5.20;99.90
10282;DHT22;5186;59.472;18.048;2022-12-07T04:46:41;-5.20;99.90
10282;DHT22;5186;59.472;18.048;2022-12-07T04:49:07;-5.20;99.90
10282;DHT22;5186;59.472;18.048;2022-12-07T04:51:32;-5.20;99.90
10282;DHT22;5186;59.472;18.048;2022-12-07T04:53:58;-5.20;99.90
10282;DHT22;5186;59.472;18.048;2022-12-07T04:56:24;-5.20;99.90
10282;DHT22;5186;59.472;18.048;2022-12-07T04:58:52;-5.20;99.90
10282;DHT22;5186;59.472;18.048;2022-12-07T05:01:18;-5.20;99.90
10282;DHT22;5186;59.472;18.048;2022-12-07T05:03:44;-5.20;99.90
10282;DHT22;5186;59.472;18.048;2022-12-07T05:06:11;-5.10;99.90
10282;DHT22;5186;59.472;18.048;2022-12-07T05:08:37;-5.10;99.90
10282;DHT22;5186;59.472;18.048;2022-12-07T05:11:03;-5.10;99.90
10282;DHT22;5186;59.472;18.048;2022-12-07T05:13:30;-5.10;99.90
10282;DHT22;5186;59.472;18.048;2022-12-07T05:15:55;-5.10;99.90
10282;DHT22;5186;59.472;18.048;2022-12-07T05:18:21;-5.10;99.90
10282;DHT22;5186;59.472;18.048;2022-12-07T05:20:46;-5.10;99.90
10282;DHT22;5186;59.472;18.048;2022-12-07T05:23:12;-5.00;99.90
10282;DHT22;5186;59.472;18.048;2022-12-07T05:25:38;-5.00;99.90
10282;DHT22;5186;59.472;18.048;2022-12-07T05:28:04;-5.00;99.90
10282;DHT22;5186;59.472;18.048;2022-12-07T05:30:30;-5.00;99.90
10282;DHT22;5186;59.472;18.048;2022-12-07T05:32:56;-5.00;99.90
10282;DHT22;5186;59.472;18.048;2022-12-07T05:35:22;-5.00;99.90
10282;DHT22;5186;59.472;18.048;2022-12-07T05:37:47;-5.00;99.90
10282;DHT22;5186;59.472;18.048;2022-12-07T05:40:14;-5.00;99.90
10282;DHT22;5186;59.472;18.048;2022-12-07T05:42:39;-4.90;99.90
10282;DHT22;5186;59.472;18.048;2022-12-07T05:45:06;-4.90;99.90
10282;DHT22;5186;59.472;18.048;2022-12-07T05:47:31;-4.90;99.90
10282;DHT22;5186;59.472;18.048;2022-12-07T05:49:57;-4.90;99.90
10282;DHT22;5186;59.472;18.048;2022-12-07T05:52:23;-4.90;99.90
10282;DHT22;5186;59.472;18.048;2022-12-07T05:54:48;-4.90;99.90
10282;DHT22;5186;59.472;18.048;2022-12-07T05:57:14;-4.90;99.90
10282;DHT22;5186;59.472;18.048;2022-12-07T05:59:40;-4.80;99.90
10282;DHT22;5186;59.472;18.048;2022-12-07T06:02:15;-4.90;99.90
10282;DHT22;5186;59.472;18.048;2022-12-07T06:04:44;-4.80;99.90
10282;DHT22;5186;59.472;18.048;2022-12-07T06:07:11;-4.90;99.90
10282;DHT22;5186;59.472;18.048;2022-12-07T06:09:37;-4.80;99.90
10282;DHT22;5186;59.472;18.048;2022-12-07T06:12:03;-4.80;99.90
10282;DHT22;5186;59.472;18.048;2022-12-07T06:14:47;-4.80;99.90
10282;DHT22;5186;59.472;18.048;2022-12-07T06:17:13;-4.80;99.90
10282;DHT22;5186;59.472;18.048;2022-12-07T06:19:39;-4.90;99.90
10282;DHT22;5186;59.472;18.048;2022-12-07T06:22:04;-4.90;99.90
10282;DHT22;5186;59.472;18.048;2022-12-07T06:24:31;-4.90;99.90
10282;DHT22;5186;59.472;18.048;2022-12-07T06:26:57;-4.80;99.90
10282;DHT22;5186;59.472;18.048;2022-12-07T06:29:23;-4.90;99.90
10282;DHT22;5186;59.472;18.048;2022-12-07T06:31:48;-4.90;99.90
10282;DHT22;5186;59.472;18.048;2022-12-07T06:34:17;-4.90;99.90
10282;DHT22;5186;59.472;18.048;2022-12-07T06:36:43;-4.90;99.90
10282;DHT22;5186;59.472;18.048;2022-12-07T06:39:10;-5.00;99.90
10282;DHT22;5186;59.472;18.048;2022-12-07T06:41:37;-5.00;99.90
10282;DHT22;5186;59.472;18.048;2022-12-07T06:44:06;-5.00;99.90
10282;DHT22;5186;59.472;18.048;2022-12-07T06:46:32;-5.00;99.90
10282;DHT22;5186;59.472;18.048;2022-12-07T06:48:57;-5.00;99.90
10282;DHT22;5186;59.472;18.048;2022-12-07T06:51:23;-5.00;99.90
10282;DHT22;5186;59.472;18.048;2022-12-07T06:53:49;-5.00;99.90
10282;DHT22;5186;59.472;18.048;2022-12-07T06:56:14;-5.00;99.90
10282;DHT22;5186;59.472;18.048;2022-12-07T06:58:40;-5.00;99.90
10282;DHT22;5186;59.472;18.048;2022-12-07T07:01:13;-5.00;99.90
10282;DHT22;5186;59.472;18.048;2022-12-07T07:03:39;-5.00;99.90
10282;DHT22;5186;59.472;18.048;2022-12-07T07:06:06;-5.00;99.90
10282;DHT22;5186;59.472;18.048;2022-12-07T07:08:33;-5.00;99.90
10282;DHT22;5186;59.472;18.048;2022-12-07T07:10:58;-5.00;99.90
10282;DHT22;5186;59.472;18.048;2022-12-07T07:13:24;-5.00;99.90
10282;DHT22;5186;59.472;18.048;2022-12-07T07:15:50;-5.00;99.90
10282;DHT22;5186;59.472;18.048;2022-12-07T07:18:15;-5.00;99.90
10282;DHT22;5186;59.472;18.048;2022-12-07T07:20:41;-5.00;99.90
10282;DHT22;5186;59.472;18.048;2022-12-07T07:23:07;-5.00;99.90
10282;DHT22;5186;59.472;18.048;2022-12-07T07:25:32;-5.00;99.90
10282;DHT22;5186;59.472;18.048;2022-12-07T07:27:58;-5.10;99.90
10282;DHT22;5186;59.472;18.048;2022-12-07T07:30:24;-5.10;99.90
10282;DHT22;5186;59.472;18.048;2022-12-07T07:32:50;-5.10;99.90
10282;DHT22;5186;59.472;18.048;2022-12-07T07:35:16;-5.10;99.90
10282;DHT22;5186;59.472;18.048;2022-12-07T07:37:42;-5.10;99.90
10282;DHT22;5186;59.472;18.048;2022-12-07T07:40:08;-5.10;99.90
10282;DHT22;5186;59.472;18.048;2022-12-07T07:42:34;-5.10;99.90
10282;DHT22;5186;59.472;18.048;2022-12-07T07:45:00;-5.10;99.90
10282;DHT22;5186;59.472;18.048;2022-12-07T07:47:25;-5.10;99.90
10282;DHT22;5186;59.472;18.048;2022-12-07T07:49:51;-5.10;99.90
10282;DHT22;5186;59.472;18.048;2022-12-07T07:52:17;-5.10;99.90
10282;DHT22;5186;59.472;18.048;2022-12-07T07:54:42;-5.10;99.90
10282;DHT22;5186;59.472;18.048;2022-12-07T07:57:08;-5.10;99.90
10282;DHT22;5186;59.472;18.048;2022-12-07T07:59:33;-5.20;99.90
10282;DHT22;5186;59.472;18.048;2022-12-07T08:01:59;-5.20;99.90
10282;DHT22;5186;59.472;18.048;2022-12-07T08:04:24;-5.10;99.90
10282;DHT22;5186;59.472;18.048;2022-12-07T08:06:50;-5.10;99.90
10282;DHT22;5186;59.472;18.048;2022-12-07T08:09:16;-5.20;99.90
10282;DHT22;5186;59.472;18.048;2022-12-07T08:11:41;-5.10;99.90
10282;DHT22;5186;59.472;18.048;2022-12-07T08:14:07;-5.10;99.90
10282;DHT22;5186;59.472;18.048;2022-12-07T08:16:32;-5.10;99.90
10282;DHT22;5186;59.472;18.048;2022-12-07T08:18:58;-5.10;99.90
10282;DHT22;5186;59.472;18.048;2022-12-07T08:21:23;-5.10;99.90
10282;DHT22;5186;59.472;18.048;2022-12-07T08:23:49;-5.10;99.90
10282;DHT22;5186;59.472;18.048;2022-12-07T08:26:16;-5.10;99.90
10282;DHT22;5186;59.472;18.048;2022-12-07T08:28:42;-5.10;99.90
10282;DHT22;5186;59.472;18.048;2022-12-07T08:31:16;-5.10;99.90
10282;DHT22;5186;59.472;18.048;2022-12-07T08:33:45;-5.10;99.90
10282;DHT22;5186;59.472;18.048;2022-12-07T08:36:12;-5.10;99.90
10282;DHT22;5186;59.472;18.048;2022-12-07T08:38:39;-5.10;99.90
10282;DHT22;5186;59.472;18.048;2022-12-07T08:41:06;-5.10;99.90
10282;DHT22;5186;59.472;18.048;2022-12-07T08:43:33;-5.10;99.90
10282;DHT22;5186;59.472;18.048;2022-12-07T08:48:58;-5.00;99.90
10282;DHT22;5186;59.472;18.048;2022-12-07T08:51:26;-5.00;99.90
10282;DHT22;5186;59.472;18.048;2022-12-07T08:53:52;-5.00;99.90
10282;DHT22;5186;59.472;18.048;2022-12-07T08:56:19;-5.00;99.90
10282;DHT22;5186;59.472;18.048;2022-12-07T08:58:45;-5.00;99.90
10282;DHT22;5186;59.472;18.048;2022-12-07T09:01:11;-4.90;99.90
10282;DHT22;5186;59.472;18.048;2022-12-07T09:03:37;-5.00;99.90
10282;DHT22;5186;59.472;18.048;2022-12-07T09:06:02;-4.90;99.90
10282;DHT22;5186;59.472;18.048;2022-12-07T09:08:34;-4.90;99.90
10282;DHT22;5186;59.472;18.048;2022-12-07T09:11:01;-4.90;99.90
10282;DHT22;5186;59.472;18.048;2022-12-07T09:13:27;-4.80;99.90
10282;DHT22;5186;59.472;18.048;2022-12-07T09:15:52;-4.80;99.90
10282;DHT22;5186;59.472;18.048;2022-12-07T09:18:18;-4.80;99.90
10282;DHT22;5186;59.472;18.048;2022-12-07T09:20:44;-4.80;99.90
10282;DHT22;5186;59.472;18.048;2022-12-07T09:23:09;-4.80;99.90
10282;DHT22;5186;59.472;18.048;2022-12-07T09:25:35;-4.80;99.90
10282;DHT22;5186;59.472;18.048;2022-12-07T09:28:01;-4.80;99.90
10282;DHT22;5186;59.472;18.048;2022-12-07T09:30:27;-4.80;99.90
10282;DHT22;5186;59.472;18.048;2022-12-07T09:32:54;-4.80;99.90
10282;DHT22;5186;59.472;18.048;2022-12-07T09:35:20;-4.80;99.90
10282;DHT22;5186;59.472;18.048;2022-12-07T09:37:45;-4.80;99.90
10282;DHT22;5186;59.472;18.048;2022-12-07T09:40:12;-4.70;99.90
10282;DHT22;5186;59.472;18.048;2022-12-07T09:42:41;-4.70;99.90
10282;DHT22;5186;59.472;18.048;2022-12-07T09:45:17;-4.70;99.90
10282;DHT22;5186;59.472;18.048;2022-12-07T09:47:44;-4.70;99.90
10282;DHT22;5186;59.472;18.048;2022-12-07T09:50:20;-4.70;99.90
10282;DHT22;5186;59.472;18.048;2022-12-07T09:52:47;-4.60;99.90
10282;DHT22;5186;59.472;18.048;2022-12-07T09:55:15;-4.60;99.90
10282;DHT22;5186;59.472;18.048;2022-12-07T09:57:42;-4.60;99.90
10282;DHT22;5186;59.472;18.048;2022-12-07T10:00:18;-4.60;99.90
10282;DHT22;5186;59.472;18.048;2022-12-07T10:02:47;-4.60;99.90
10282;DHT22;5186;59.472;18.048;2022-12-07T10:07:55;-4.50;99.90
10282;DHT22;5186;59.472;18.048;2022-12-07T10:10:34;-4.50;99.90
10282;DHT22;5186;59.472;18.048;2022-12-07T10:13:09;-4.40;99.90
10282;DHT22;5186;59.472;18.048;2022-12-07T10:15:43;-4.40;99.90
10282;DHT22;5186;59.472;18.048;2022-12-07T10:20:48;-4.30;99.90
10282;DHT22;5186;59.472;18.048;2022-12-07T10:23:16;-4.30;99.90
10282;DHT22;5186;59.472;18.048;2022-12-07T10:25:43;-4.30;99.90
10282;DHT22;5186;59.472;18.048;2022-12-07T10:33:31;-4.20;99.90
10282;DHT22;5186;59.472;18.048;2022-12-07T10:35:57;-4.10;99.90
10282;DHT22;5186;59.472;18.048;2022-12-07T10:38:26;-4.10;99.90
10282;DHT22;5186;59.472;18.048;2022-12-07T10:41:12;-4.10;99.90
10282;DHT22;5186;59.472;18.048;2022-12-07T10:43:50;-4.10;99.90
10282;DHT22;5186;59.472;18.048;2022-12-07T10:52:16;-4.00;99.90
10282;DHT22;5186;59.472;18.048;2022-12-07T11:00:45;-4.00;99.90
10282;DHT22;5186;59.472;18.048;2022-12-07T11:11:36;-3.80;99.90
10282;DHT22;5186;59.472;18.048;2022-12-07T11:14:05;-3.80;99.90
10282;DHT22;5186;59.472;18.048;2022-12-07T11:19:40;-3.70;99.90
10282;DHT22;5186;59.472;18.048;2022-12-07T11:22:19;-3.70;99.90
10282;DHT22;5186;59.472;18.048;2022-12-07T11:25:31;-3.60;99.90
10282;DHT22;5186;59.472;18.048;2022-12-07T11:33:22;-3.60;99.90
10282;DHT22;5186;59.472;18.048;2022-12-07T11:36:02;-3.60;99.90
10282;DHT22;5186;59.472;18.048;2022-12-07T11:38:53;-3.60;99.90
10282;DHT22;5186;59.472;18.048;2022-12-07T11:41:23;-3.50;99.90
10282;DHT22;5186;59.472;18.048;2022-12-07T11:47:07;-3.50;99.90
10282;DHT22;5186;59.472;18.048;2022-12-07T11:52:27;-3.50;99.90
10282;DHT22;5186;59.472;18.048;2022-12-07T11:54:57;-3.40;99.90
10282;DHT22;5186;59.472;18.048;2022-12-07T11:57:39;-3.40;99.90
10282;DHT22;5186;59.472;18.048;2022-12-07T12:00:15;-3.40;99.90
10282;DHT22;5186;59.472;18.048;2022-12-07T12:02:52;-3.40;99.90
10282;DHT22;5186;59.472;18.048;2022-12-07T12:05:22;-3.40;99.90
10282;DHT22;5186;59.472;18.048;2022-12-07T12:08:04;-3.30;99.90
10282;DHT22;5186;59.472;18.048;2022-12-07T12:13:35;-3.30;99.90
10282;DHT22;5186;59.472;18.048;2022-12-07T12:19:11;-3.30;99.90
10282;DHT22;5186;59.472;18.048;2022-12-07T12:21:41;-3.30;99.90
10282;DHT22;5186;59.472;18.048;2022-12-07T12:24:18;-3.20;99.90
10282;DHT22;5186;59.472;18.048;2022-12-07T12:27:01;-3.20;99.90
10282;DHT22;5186;59.472;18.048;2022-12-07T12:29:31;-3.30;99.90
10282;DHT22;5186;59.472;18.048;2022-12-07T12:32:18;-3.20;99.90
10282;DHT22;5186;59.472;18.048;2022-12-07T12:42:56;-3.10;99.90
10282;DHT22;5186;59.472;18.048;2022-12-07T12:45:25;-3.10;99.90
10282;DHT22;5186;59.472;18.048;2022-12-07T12:47:57;-3.10;99.90
10282;DHT22;5186;59.472;18.048;2022-12-07T12:50:29;-3.10;99.90
10282;DHT22;5186;59.472;18.048;2022-12-07T12:53:15;-3.10;99.90
10282;DHT22;5186;59.472;18.048;2022-12-07T13:00:48;-3.10;99.90
10282;DHT22;5186;59.472;18.048;2022-12-07T13:03:33;-3.10;99.90
10282;DHT22;5186;59.472;18.048;2022-12-07T13:08:51;-3.20;99.90
10282;DHT22;5186;59.472;18.048;2022-12-07T13:16:57;-3.20;99.90
10282;DHT22;5186;59.472;18.048;2022-12-07T13:27:39;-3.10;99.90
10282;DHT22;5186;59.472;18.048;2022-12-07T13:30:23;-3.10;99.90
10282;DHT22;5186;59.472;18.048;2022-12-07T13:32:54;-3.10;99.90
10282;DHT22;5186;59.472;18.048;2022-12-07T13:35:35;-3.00;99.90
10282;DHT22;5186;59.472;18.048;2022-12-07T13:38:13;-3.00;99.90
10282;DHT22;5186;59.472;18.048;2022-12-07T13:40:40;-3.00;99.90
10282;DHT22;5186;59.472;18.048;2022-12-07T13:43:14;-3.00;99.90
10282;DHT22;5186;59.472;18.048;2022-12-07T13:45:41;-3.00;99.90
10282;DHT22;5186;59.472;18.048;2022-12-07T13:48:32;-3.00;99.90
10282;DHT22;5186;59.472;18.048;2022-12-07T13:51:00;-3.00;99.90
10282;DHT22;5186;59.472;18.048;2022-12-07T13:53:26;-2.90;99.90
10282;DHT22;5186;59.472;18.048;2022-12-07T13:55:59;-2.90;99.90
10282;DHT22;5186;59.472;18.048;2022-12-07T13:58:27;-2.90;99.90
10282;DHT22;5186;59.472;18.048;2022-12-07T14:00:55;-2.90;99.90
10282;DHT22;5186;59.472;18.048;2022-12-07T14:03:33;-2.90;99.90
10282;DHT22;5186;59.472;18.048;2022-12-07T14:06:07;-2.90;99.90
10282;DHT22;5186;59.472;18.048;2022-12-07T14:08:32;-2.90;99.90
10282;DHT22;5186;59.472;18.048;2022-12-07T14:10:59;-3.00;99.90
10282;DHT22;5186;59.472;18.048;2022-12-07T14:15:59;-3.00;99.90
10282;DHT22;5186;59.472;18.048;2022-12-07T14:18:28;-3.00;99.90
10282;DHT22;5186;59.472;18.048;2022-12-07T14:21:17;-3.00;99.90
10282;DHT22;5186;59.472;18.048;2022-12-07T14:23:45;-3.00;99.90
10282;DHT22;5186;59.472;18.048;2022-12-07T14:26:16;-3.00;99.90
10282;DHT22;5186;59.472;18.048;2022-12-07T14:28:44;-3.00;99.90
10282;DHT22;5186;59.472;18.048;2022-12-07T14:31:18;-3.00;99.90
10282;DHT22;5186;59.472;18.048;2022-12-07T14:33:45;-3.00;99.90
10282;DHT22;5186;59.472;18.048;2022-12-07T14:36:12;-3.00;99.90
10282;DHT22;5186;59.472;18.048;2022-12-07T14:38:37;-3.00;99.90
10282;DHT22;5186;59.472;18.048;2022-12-07T14:41:06;-3.00;99.90
10282;DHT22;5186;59.472;18.048;2022-12-07T14:43:54;-3.00;99.90
10282;DHT22;5186;59.472;18.048;2022-12-07T14:46:20;-3.10;99.90
10282;DHT22;5186;59.472;18.048;2022-12-07T14:48:45;-3.10;99.90
10282;DHT22;5186;59.472;18.048;2022-12-07T14:51:12;-3.10;99.90
10282;DHT22;5186;59.472;18.048;2022-12-07T14:53:44;-3.20;99.90
10282;DHT22;5186;59.472;18.048;2022-12-07T14:56:11;-3.20;99.90
10282;DHT22;5186;59.472;18.048;2022-12-07T14:58:37;-3.20;99.90
10282;DHT22;5186;59.472;18.048;2022-12-07T15:01:03;-3.20;99.90
10282;DHT22;5186;59.472;18.048;2022-12-07T15:03:29;-3.20;99.90
10282;DHT22;5186;59.472;18.048;2022-12-07T15:05:58;-3.30;99.90
10282;DHT22;5186;59.472;18.048;2022-12-07T15:08:23;-3.30;99.90
10282;DHT22;5186;59.472;18.048;2022-12-07T15:10:49;-3.30;99.90
10282;DHT22;5186;59.472;18.048;2022-12-07T15:13:15;-3.30;99.90
10282;DHT22;5186;59.472;18.048;2022-12-07T15:15:59;-3.30;99.90
10282;DHT22;5186;59.472;18.048;2022-12-07T15:18:25;-3.40;99.90
10282;DHT22;5186;59.472;18.048;2022-12-07T15:20:50;-3.40;99.90
10282;DHT22;5186;59.472;18.048;2022-12-07T15:23:17;-3.50;99.90
10282;DHT22;5186;59.472;18.048;2022-12-07T15:25:47;-3.40;99.90
10282;DHT22;5186;59.472;18.048;2022-12-07T15:28:14;-3.50;99.90
10282;DHT22;5186;59.472;18.048;2022-12-07T15:30:41;-3.50;99.90
10282;DHT22;5186;59.472;18.048;2022-12-07T15:33:08;-3.50;99.90
10282;DHT22;5186;59.472;18.048;2022-12-07T15:35:33;-3.50;99.90
10282;DHT22;5186;59.472;18.048;2022-12-07T15:37:59;-3.60;99.90
10282;DHT22;5186;59.472;18.048;2022-12-07T15:40:24;-3.60;99.90
10282;DHT22;5186;59.472;18.048;2022-12-07T15:42:50;-3.60;99.90
10282;DHT22;5186;59.472;18.048;2022-12-07T15:45:15;-3.50;99.90
10282;DHT22;5186;59.472;18.048;2022-12-07T15:47:42;-3.60;99.90
10282;DHT22;5186;59.472;18.048;2022-12-07T15:50:11;-3.60;99.90
10282;DHT22;5186;59.472;18.048;2022-12-07T15:52:38;-3.60;99.90
10282;DHT22;5186;59.472;18.048;2022-12-07T15:55:04;-3.70;99.90
10282;DHT22;5186;59.472;18.048;2022-12-07T15:57:31;-3.60;99.90
10282;DHT22;5186;59.472;18.048;2022-12-07T15:59:57;-3.70;99.90
10282;DHT22;5186;59.472;18.048;2022-12-07T16:02:22;-3.70;99.90
10282;DHT22;5186;59.472;18.048;2022-12-07T16:04:49;-3.70;99.90
10282;DHT22;5186;59.472;18.048;2022-12-07T16:07:15;-3.70;99.90
10282;DHT22;5186;59.472;18.048;2022-12-07T16:09:42;-3.70;99.90
10282;DHT22;5186;59.472;18.048;2022-12-07T16:12:08;-3.70;99.90
10282;DHT22;5186;59.472;18.048;2022-12-07T16:14:34;-3.70;99.90
10282;DHT22;5186;59.472;18.048;2022-12-07T16:17:00;-3.70;99.90
10282;DHT22;5186;59.472;18.048;2022-12-07T16:19:26;-3.80;99.90
10282;DHT22;5186;59.472;18.048;2022-12-07T16:21:51;-3.80;99.90
10282;DHT22;5186;59.472;18.048;2022-12-07T16:24:17;-3.80;99.90
10282;DHT22;5186;59.472;18.048;2022-12-07T16:26:43;-3.80;99.90
10282;DHT22;5186;59.472;18.048;2022-12-07T16:29:13;-3.80;99.90
10282;DHT22;5186;59.472;18.048;2022-12-07T16:31:39;-3.80;99.90
10282;DHT22;5186;59.472;18.048;2022-12-07T16:34:04;-3.90;99.90
10282;DHT22;5186;59.472;18.048;2022-12-07T16:36:30;-3.90;99.90
10282;DHT22;5186;59.472;18.048;2022-12-07T16:38:58;-3.90;99.90
10282;DHT22;5186;59.472;18.048;2022-12-07T16:41:23;-3.90;99.90
10282;DHT22;5186;59.472;18.048;2022-12-07T16:43:49;-3.90;99.90
10282;DHT22;5186;59.472;18.048;2022-12-07T16:46:15;-3.90;99.90
10282;DHT22;5186;59.472;18.048;2022-12-07T16:48:41;-3.90;99.90
10282;DHT22;5186;59.472;18.048;2022-12-07T16:51:08;-3.90;99.90
10282;DHT22;5186;59.472;18.048;2022-12-07T16:53:34;-3.90;99.90
10282;DHT22;5186;59.472;18.048;2022-12-07T16:56:00;-3.90;99.90
10282;DHT22;5186;59.472;18.048;2022-12-07T16:58:26;-3.90;99.90
10282;DHT22;5186;59.472;18.048;2022-12-07T17:00:51;-4.00;99.90
10282;DHT22;5186;59.472;18.048;2022-12-07T17:03:17;-4.00;99.90
10282;DHT22;5186;59.472;18.048;2022-12-07T17:05:44;-4.00;99.90
10282;DHT22;5186;59.472;18.048;2022-12-07T17:08:12;-4.10;99.90
10282;DHT22;5186;59.472;18.048;2022-12-07T17:10:40;-4.00;99.90
10282;DHT22;5186;59.472;18.048;2022-12-07T17:13:06;-4.00;99.90
10282;DHT22;5186;59.472;18.048;2022-12-07T17:16:03;-4.10;99.90
10282;DHT22;5186;59.472;18.048;2022-12-07T17:18:32;-4.10;99.90
10282;DHT22;5186;59.472;18.048;2022-12-07T17:21:07;-4.10;99.90
10282;DHT22;5186;59.472;18.048;2022-12-07T17:23:33;-4.20;99.90
10282;DHT22;5186;59.472;18.048;2022-12-07T17:26:20;-4.10;99.90
10282;DHT22;5186;59.472;18.048;2022-12-07T17:28:46;-4.20;99.90